Bisham Weather



Bisham's Current Weather

Temprature 7.38o overcast clouds

overcast clouds

Rain: 0 %

Min Temprature7.38o
Max Temprature7.38o
Humidity34
Wind Speed2.71 m/h
Sun Rise06:43:42
Sun Set18:01:03
Current Time: 26-Feb-2020 23:12:36
Lat/Lon: 35.01, 72.71




Bisham's Geo Location



Bisham's Weather Forecast

Time Overall Temp Min Temp Max Temp Humidity Wind Speed Rain
27-Feb-2020 (Thu)
02:00:00 overcast clouds 6.820 6.820 6.820 34 3.05 m/h 0 %
05:00:00 overcast clouds 6.790 6.790 6.790 33 2.6 m/h 0 %
08:00:00 overcast clouds 8.370 8.370 8.370 35 2.5 m/h 0 %
11:00:00 overcast clouds 13.720 13.720 13.720 21 2.39 m/h 0 %
14:00:00 overcast clouds 15.690 15.690 15.690 20 2.38 m/h 0 %
17:00:00 broken clouds 14.680 14.680 14.680 24 1.73 m/h 0 %
20:00:00 broken clouds 9.840 9.840 9.840 33 1.89 m/h 0 %
23:00:00 light rain 7.900 7.900 7.900 55 3.94 m/h 94 %
28-Feb-2020 (Fri)
02:00:00 light rain 7.030 7.030 7.030 68 2.49 m/h 175 %
05:00:00 light rain 6.610 6.610 6.610 73 3.89 m/h 188 %
08:00:00 light rain 7.430 7.430 7.430 75 3.13 m/h 213 %
11:00:00 light rain 7.700 7.700 7.700 78 3.38 m/h 288 %
14:00:00 light rain 13.420 13.420 13.420 50 1.21 m/h 213 %
17:00:00 light rain 11.680 11.680 11.680 57 1.48 m/h 219 %
20:00:00 light rain 7.690 7.690 7.690 63 3.2 m/h 119 %
23:00:00 light rain 8.450 8.450 8.450 60 2 m/h 62 %
29-Feb-2020 (Sat)
02:00:00 light rain 7.420 7.420 7.420 68 3.5 m/h 75 %
05:00:00 light rain 5.680 5.680 5.680 79 1.39 m/h 219 %
08:00:00 light rain 6.120 6.120 6.120 82 1.29 m/h 81 %
11:00:00 light rain 7.400 7.400 7.400 72 0.58 m/h 256 %
14:00:00 moderate rain 5.400 5.400 5.400 89 2.16 m/h 469 %
17:00:00 moderate rain 7.110 7.110 7.110 81 1.38 m/h 587 %
20:00:00 light rain 5.910 5.910 5.910 74 2.97 m/h 56 %
23:00:00 broken clouds 5.570 5.570 5.570 67 2.98 m/h 0 %
01-Mar-2020 (Sun)
02:00:00 broken clouds 5.520 5.520 5.520 67 3.28 m/h 0 %
05:00:00 broken clouds 5.070 5.070 5.070 65 3.18 m/h 0 %
08:00:00 few clouds 6.880 6.880 6.880 61 3.2 m/h 0 %
11:00:00 clear sky 13.340 13.340 13.340 43 0.68 m/h 0 %
14:00:00 clear sky 14.560 14.560 14.560 38 2.03 m/h 0 %
17:00:00 scattered clouds 12.970 12.970 12.970 48 1.68 m/h 0 %
20:00:00 scattered clouds 7.800 7.800 7.800 58 3.25 m/h 0 %
23:00:00 few clouds 6.640 6.640 6.640 54 3.52 m/h 0 %
02-Mar-2020 (Mon)
02:00:00 clear sky 5.900 5.900 5.900 52 3.9 m/h 0 %
05:00:00 clear sky 5.310 5.310 5.310 51 3.88 m/h 0 %
08:00:00 scattered clouds 7.890 7.890 7.890 49 3.13 m/h 0 %
11:00:00 scattered clouds 14.380 14.380 14.380 30 1.47 m/h 0 %
14:00:00 broken clouds 15.340 15.340 15.340 30 2.73 m/h 0 %
17:00:00 scattered clouds 14.160 14.160 14.160 37 1.91 m/h 0 %
20:00:00 clear sky 8.310 8.310 8.310 49 3.15 m/h 0 %
23:00:00 clear sky 7.110 7.110 7.110 45 3.68 m/h 0 %

Famous Cities (61)